sensor_id;sensor_type;location;lat;lon;timestamp;P1;durP1;ratioP1;P2;durP2;ratioP2
4867;SDS011;2448;48.086;10.862;2023-05-15T00:01:14;4.37;;;3.60;;
4867;SDS011;2448;48.086;10.862;2023-05-15T00:03:40;3.97;;;3.60;;
4867;SDS011;2448;48.086;10.862;2023-05-15T00:06:05;6.57;;;3.57;;
4867;SDS011;2448;48.086;10.862;2023-05-15T00:08:31;3.60;;;3.30;;
4867;SDS011;2448;48.086;10.862;2023-05-15T00:10:56;3.43;;;3.03;;
4867;SDS011;2448;48.086;10.862;2023-05-15T00:13:21;3.97;;;3.10;;
4867;SDS011;2448;48.086;10.862;2023-05-15T00:15:47;3.47;;;3.17;;
4867;SDS011;2448;48.086;10.862;2023-05-15T00:18:12;3.47;;;3.10;;
4867;SDS011;2448;48.086;10.862;2023-05-15T00:20:37;4.07;;;3.07;;
4867;SDS011;2448;48.086;10.862;2023-05-15T00:23:03;2.90;;;2.70;;
4867;SDS011;2448;48.086;10.862;2023-05-15T00:25:29;2.90;;;2.73;;
4867;SDS011;2448;48.086;10.862;2023-05-15T00:27:54;3.23;;;2.73;;
4867;SDS011;2448;48.086;10.862;2023-05-15T00:30:20;7.10;;;3.30;;
4867;SDS011;2448;48.086;10.862;2023-05-15T00:32:46;3.10;;;2.80;;
4867;SDS011;2448;48.086;10.862;2023-05-15T00:35:11;4.10;;;3.07;;
4867;SDS011;2448;48.086;10.862;2023-05-15T00:37:36;4.23;;;2.50;;
4867;SDS011;2448;48.086;10.862;2023-05-15T00:40:02;3.70;;;2.83;;
4867;SDS011;2448;48.086;10.862;2023-05-15T00:42:28;3.50;;;3.13;;
4867;SDS011;2448;48.086;10.862;2023-05-15T00:44:54;2.97;;;2.77;;
4867;SDS011;2448;48.086;10.862;2023-05-15T00:47:21;2.73;;;2.63;;
4867;SDS011;2448;48.086;10.862;2023-05-15T00:49:46;4.20;;;3.20;;
4867;SDS011;2448;48.086;10.862;2023-05-15T00:52:13;3.00;;;2.70;;
4867;SDS011;2448;48.086;10.862;2023-05-15T00:54:39;3.50;;;2.73;;
4867;SDS011;2448;48.086;10.862;2023-05-15T00:57:04;4.03;;;3.60;;
4867;SDS011;2448;48.086;10.862;2023-05-15T00:59:31;2.87;;;2.67;;
4867;SDS011;2448;48.086;10.862;2023-05-15T01:01:56;4.80;;;3.60;;
4867;SDS011;2448;48.086;10.862;2023-05-15T01:04:22;3.47;;;3.13;;
4867;SDS011;2448;48.086;10.862;2023-05-15T01:06:47;6.03;;;3.80;;
4867;SDS011;2448;48.086;10.862;2023-05-15T01:09:13;3.10;;;2.80;;
4867;SDS011;2448;48.086;10.862;2023-05-15T01:11:39;2.93;;;2.60;;
4867;SDS011;2448;48.086;10.862;2023-05-15T01:14:06;4.00;;;3.57;;
4867;SDS011;2448;48.086;10.862;2023-05-15T01:16:32;3.70;;;3.40;;
4867;SDS011;2448;48.086;10.862;2023-05-15T01:18:58;16.23;;;4.00;;
4867;SDS011;2448;48.086;10.862;2023-05-15T01:29:07;4.23;;;3.60;;
4867;SDS011;2448;48.086;10.862;2023-05-15T01:31:38;4.20;;;3.80;;
4867;SDS011;2448;48.086;10.862;2023-05-15T01:34:07;5.60;;;3.70;;
4867;SDS011;2448;48.086;10.862;2023-05-15T01:36:35;4.37;;;3.97;;
4867;SDS011;2448;48.086;10.862;2023-05-15T01:39:01;10.20;;;4.40;;
4867;SDS011;2448;48.086;10.862;2023-05-15T01:41:28;4.53;;;4.10;;
4867;SDS011;2448;48.086;10.862;2023-05-15T01:43:59;4.13;;;3.50;;
4867;SDS011;2448;48.086;10.862;2023-05-15T01:46:26;5.93;;;4.03;;
4867;SDS011;2448;48.086;10.862;2023-05-15T01:48:53;4.03;;;3.63;;
4867;SDS011;2448;48.086;10.862;2023-05-15T01:51:19;4.93;;;3.63;;
4867;SDS011;2448;48.086;10.862;2023-05-15T01:53:45;4.00;;;3.70;;
4867;SDS011;2448;48.086;10.862;2023-05-15T01:56:11;4.60;;;3.57;;
4867;SDS011;2448;48.086;10.862;2023-05-15T01:58:37;5.83;;;4.13;;
4867;SDS011;2448;48.086;10.862;2023-05-15T02:01:05;3.90;;;3.50;;
4867;SDS011;2448;48.086;10.862;2023-05-15T02:03:32;6.17;;;3.87;;
4867;SDS011;2448;48.086;10.862;2023-05-15T02:06:01;4.90;;;4.30;;
4867;SDS011;2448;48.086;10.862;2023-05-15T02:08:26;7.90;;;3.93;;
4867;SDS011;2448;48.086;10.862;2023-05-15T02:10:55;4.67;;;3.93;;
4867;SDS011;2448;48.086;10.862;2023-05-15T02:13:21;4.83;;;4.00;;
4867;SDS011;2448;48.086;10.862;2023-05-15T02:15:49;4.63;;;3.90;;
4867;SDS011;2448;48.086;10.862;2023-05-15T02:18:14;5.23;;;4.03;;
4867;SDS011;2448;48.086;10.862;2023-05-15T02:20:40;4.07;;;3.67;;
4867;SDS011;2448;48.086;10.862;2023-05-15T02:23:05;5.30;;;4.07;;
4867;SDS011;2448;48.086;10.862;2023-05-15T02:25:33;7.73;;;4.27;;
4867;SDS011;2448;48.086;10.862;2023-05-15T02:28:02;4.17;;;3.77;;
4867;SDS011;2448;48.086;10.862;2023-05-15T02:30:45;3.73;;;3.43;;
4867;SDS011;2448;48.086;10.862;2023-05-15T02:33:17;4.20;;;3.47;;
4867;SDS011;2448;48.086;10.862;2023-05-15T02:38:18;6.17;;;4.07;;
4867;SDS011;2448;48.086;10.862;2023-05-15T02:40:44;3.73;;;3.10;;
4867;SDS011;2448;48.086;10.862;2023-05-15T02:43:10;5.80;;;4.13;;
4867;SDS011;2448;48.086;10.862;2023-05-15T02:45:37;4.23;;;3.80;;
4867;SDS011;2448;48.086;10.862;2023-05-15T02:48:04;5.13;;;3.80;;
4867;SDS011;2448;48.086;10.862;2023-05-15T02:50:30;3.30;;;3.00;;
4867;SDS011;2448;48.086;10.862;2023-05-15T02:53:05;4.20;;;3.30;;
4867;SDS011;2448;48.086;10.862;2023-05-15T02:55:34;9.60;;;3.37;;
4867;SDS011;2448;48.086;10.862;2023-05-15T02:58:00;8.00;;;3.43;;
4867;SDS011;2448;48.086;10.862;2023-05-15T03:00:26;5.80;;;3.10;;
4867;SDS011;2448;48.086;10.862;2023-05-15T03:02:51;5.47;;;4.03;;
4867;SDS011;2448;48.086;10.862;2023-05-15T03:05:17;3.80;;;3.50;;
4867;SDS011;2448;48.086;10.862;2023-05-15T03:07:42;5.53;;;4.00;;
4867;SDS011;2448;48.086;10.862;2023-05-15T03:10:08;7.30;;;3.53;;
4867;SDS011;2448;48.086;10.862;2023-05-15T03:12:33;5.93;;;3.97;;
4867;SDS011;2448;48.086;10.862;2023-05-15T03:14:59;6.17;;;4.17;;
4867;SDS011;2448;48.086;10.862;2023-05-15T03:17:25;3.67;;;3.33;;
4867;SDS011;2448;48.086;10.862;2023-05-15T03:19:51;4.47;;;3.33;;
4867;SDS011;2448;48.086;10.862;2023-05-15T03:22:16;5.97;;;4.17;;
4867;SDS011;2448;48.086;10.862;2023-05-15T03:24:41;6.13;;;5.10;;
4867;SDS011;2448;48.086;10.862;2023-05-15T03:27:07;4.40;;;3.90;;
4867;SDS011;2448;48.086;10.862;2023-05-15T03:29:32;6.57;;;3.70;;
4867;SDS011;2448;48.086;10.862;2023-05-15T03:31:58;6.93;;;4.47;;
4867;SDS011;2448;48.086;10.862;2023-05-15T03:34:23;6.37;;;3.70;;
4867;SDS011;2448;48.086;10.862;2023-05-15T03:36:48;4.13;;;3.60;;
4867;SDS011;2448;48.086;10.862;2023-05-15T03:39:14;5.63;;;4.20;;
4867;SDS011;2448;48.086;10.862;2023-05-15T03:41:39;7.07;;;4.60;;
4867;SDS011;2448;48.086;10.862;2023-05-15T03:44:05;7.20;;;5.23;;
4867;SDS011;2448;48.086;10.862;2023-05-15T03:46:30;5.87;;;4.40;;
4867;SDS011;2448;48.086;10.862;2023-05-15T03:48:55;4.07;;;3.57;;
4867;SDS011;2448;48.086;10.862;2023-05-15T03:51:21;5.73;;;3.90;;
4867;SDS011;2448;48.086;10.862;2023-05-15T03:53:46;5.60;;;3.90;;
4867;SDS011;2448;48.086;10.862;2023-05-15T03:56:11;6.17;;;3.60;;
4867;SDS011;2448;48.086;10.862;2023-05-15T03:58:37;20.17;;;4.53;;
4867;SDS011;2448;48.086;10.862;2023-05-15T04:01:02;10.00;;;4.43;;
4867;SDS011;2448;48.086;10.862;2023-05-15T04:03:28;7.70;;;4.80;;
4867;SDS011;2448;48.086;10.862;2023-05-15T04:05:53;6.57;;;4.60;;
4867;SDS011;2448;48.086;10.862;2023-05-15T04:08:18;7.77;;;5.23;;
4867;SDS011;2448;48.086;10.862;2023-05-15T04:10:44;5.23;;;4.33;;
4867;SDS011;2448;48.086;10.862;2023-05-15T04:13:09;7.40;;;4.60;;
4867;SDS011;2448;48.086;10.862;2023-05-15T04:15:34;5.37;;;3.93;;
4867;SDS011;2448;48.086;10.862;2023-05-15T04:18:00;8.30;;;4.63;;
4867;SDS011;2448;48.086;10.862;2023-05-15T04:20:25;6.03;;;4.37;;
4867;SDS011;2448;48.086;10.862;2023-05-15T04:22:51;8.60;;;4.57;;
4867;SDS011;2448;48.086;10.862;2023-05-15T04:25:16;30.57;;;4.40;;
4867;SDS011;2448;48.086;10.862;2023-05-15T04:27:42;8.00;;;4.60;;
4867;SDS011;2448;48.086;10.862;2023-05-15T04:30:08;4.30;;;3.70;;
4867;SDS011;2448;48.086;10.862;2023-05-15T04:32:34;7.17;;;5.17;;
4867;SDS011;2448;48.086;10.862;2023-05-15T04:35:00;6.40;;;4.27;;
4867;SDS011;2448;48.086;10.862;2023-05-15T04:37:25;5.73;;;4.37;;
4867;SDS011;2448;48.086;10.862;2023-05-15T04:39:51;7.07;;;4.60;;
4867;SDS011;2448;48.086;10.862;2023-05-15T04:42:16;15.50;;;4.60;;
4867;SDS011;2448;48.086;10.862;2023-05-15T04:44:41;6.03;;;4.70;;
4867;SDS011;2448;48.086;10.862;2023-05-15T04:47:08;5.10;;;3.90;;
4867;SDS011;2448;48.086;10.862;2023-05-15T04:49:34;5.53;;;4.00;;
4867;SDS011;2448;48.086;10.862;2023-05-15T04:51:59;4.83;;;4.33;;
4867;SDS011;2448;48.086;10.862;2023-05-15T04:54:25;9.60;;;4.20;;
4867;SDS011;2448;48.086;10.862;2023-05-15T04:56:51;6.50;;;4.10;;
4867;SDS011;2448;48.086;10.862;2023-05-15T04:59:16;4.40;;;3.83;;
4867;SDS011;2448;48.086;10.862;2023-05-15T05:01:42;6.73;;;5.60;;
4867;SDS011;2448;48.086;10.862;2023-05-15T05:04:07;5.10;;;4.40;;
4867;SDS011;2448;48.086;10.862;2023-05-15T05:06:33;6.47;;;4.10;;
4867;SDS011;2448;48.086;10.862;2023-05-15T05:08:58;5.83;;;4.50;;
4867;SDS011;2448;48.086;10.862;2023-05-15T05:11:23;4.93;;;3.83;;
4867;SDS011;2448;48.086;10.862;2023-05-15T05:13:49;5.10;;;4.50;;
4867;SDS011;2448;48.086;10.862;2023-05-15T05:16:15;7.13;;;4.50;;
4867;SDS011;2448;48.086;10.862;2023-05-15T05:18:40;4.43;;;4.00;;
4867;SDS011;2448;48.086;10.862;2023-05-15T05:21:05;6.00;;;4.20;;
4867;SDS011;2448;48.086;10.862;2023-05-15T05:23:31;7.30;;;4.63;;
4867;SDS011;2448;48.086;10.862;2023-05-15T05:25:57;7.07;;;4.87;;
4867;SDS011;2448;48.086;10.862;2023-05-15T05:28:23;6.23;;;4.60;;
4867;SDS011;2448;48.086;10.862;2023-05-15T05:30:48;6.93;;;4.03;;
4867;SDS011;2448;48.086;10.862;2023-05-15T05:33:13;5.47;;;4.30;;
4867;SDS011;2448;48.086;10.862;2023-05-15T05:35:39;7.67;;;4.80;;
4867;SDS011;2448;48.086;10.862;2023-05-15T05:38:05;5.97;;;4.47;;
4867;SDS011;2448;48.086;10.862;2023-05-15T05:40:30;9.00;;;4.47;;
4867;SDS011;2448;48.086;10.862;2023-05-15T05:43:01;5.53;;;4.10;;
4867;SDS011;2448;48.086;10.862;2023-05-15T05:45:27;5.27;;;4.60;;
4867;SDS011;2448;48.086;10.862;2023-05-15T05:47:56;14.90;;;5.07;;
4867;SDS011;2448;48.086;10.862;2023-05-15T05:50:21;8.90;;;4.80;;
4867;SDS011;2448;48.086;10.862;2023-05-15T05:52:47;5.20;;;4.53;;
4867;SDS011;2448;48.086;10.862;2023-05-15T05:55:12;18.73;;;4.80;;
4867;SDS011;2448;48.086;10.862;2023-05-15T05:57:38;9.47;;;4.60;;
4867;SDS011;2448;48.086;10.862;2023-05-15T06:00:03;5.40;;;4.60;;
4867;SDS011;2448;48.086;10.862;2023-05-15T06:02:35;5.97;;;4.10;;
4867;SDS011;2448;48.086;10.862;2023-05-15T06:05:01;6.30;;;4.57;;
4867;SDS011;2448;48.086;10.862;2023-05-15T06:07:26;5.77;;;4.53;;
4867;SDS011;2448;48.086;10.862;2023-05-15T06:09:52;6.40;;;3.93;;
4867;SDS011;2448;48.086;10.862;2023-05-15T06:12:17;6.23;;;4.60;;
4867;SDS011;2448;48.086;10.862;2023-05-15T06:14:43;6.17;;;4.37;;
4867;SDS011;2448;48.086;10.862;2023-05-15T06:17:08;3.77;;;3.47;;
4867;SDS011;2448;48.086;10.862;2023-05-15T06:19:34;5.70;;;4.30;;
4867;SDS011;2448;48.086;10.862;2023-05-15T06:21:59;5.33;;;4.33;;
4867;SDS011;2448;48.086;10.862;2023-05-15T06:24:25;6.20;;;5.03;;
4867;SDS011;2448;48.086;10.862;2023-05-15T06:26:50;5.27;;;4.03;;
4867;SDS011;2448;48.086;10.862;2023-05-15T06:29:16;8.03;;;4.03;;
4867;SDS011;2448;48.086;10.862;2023-05-15T06:31:41;4.23;;;3.83;;
4867;SDS011;2448;48.086;10.862;2023-05-15T06:34:07;7.60;;;4.67;;
4867;SDS011;2448;48.086;10.862;2023-05-15T06:36:32;5.30;;;4.07;;
4867;SDS011;2448;48.086;10.862;2023-05-15T06:38:58;4.63;;;3.60;;
4867;SDS011;2448;48.086;10.862;2023-05-15T06:41:23;4.90;;;4.03;;
4867;SDS011;2448;48.086;10.862;2023-05-15T06:43:48;4.53;;;4.13;;
4867;SDS011;2448;48.086;10.862;2023-05-15T06:46:14;5.80;;;4.40;;
4867;SDS011;2448;48.086;10.862;2023-05-15T06:48:41;5.53;;;4.00;;
4867;SDS011;2448;48.086;10.862;2023-05-15T06:51:06;11.20;;;4.17;;
4867;SDS011;2448;48.086;10.862;2023-05-15T06:53:31;5.43;;;4.07;;
4867;SDS011;2448;48.086;10.862;2023-05-15T06:55:57;6.20;;;3.63;;
4867;SDS011;2448;48.086;10.862;2023-05-15T06:58:22;4.30;;;3.77;;
4867;SDS011;2448;48.086;10.862;2023-05-15T07:00:48;4.73;;;4.30;;
4867;SDS011;2448;48.086;10.862;2023-05-15T07:03:13;5.70;;;4.60;;
4867;SDS011;2448;48.086;10.862;2023-05-15T07:05:39;4.33;;;3.93;;
4867;SDS011;2448;48.086;10.862;2023-05-15T07:08:05;5.30;;;3.67;;
4867;SDS011;2448;48.086;10.862;2023-05-15T07:10:30;4.97;;;3.80;;
4867;SDS011;2448;48.086;10.862;2023-05-15T07:12:56;8.33;;;3.80;;
4867;SDS011;2448;48.086;10.862;2023-05-15T07:15:21;6.33;;;4.43;;
4867;SDS011;2448;48.086;10.862;2023-05-15T07:17:46;7.63;;;4.13;;
4867;SDS011;2448;48.086;10.862;2023-05-15T07:20:12;5.00;;;4.20;;
4867;SDS011;2448;48.086;10.862;2023-05-15T07:22:37;5.67;;;4.37;;
4867;SDS011;2448;48.086;10.862;2023-05-15T07:25:03;6.10;;;4.60;;
4867;SDS011;2448;48.086;10.862;2023-05-15T07:27:28;8.70;;;4.50;;
4867;SDS011;2448;48.086;10.862;2023-05-15T07:29:54;5.80;;;4.30;;
4867;SDS011;2448;48.086;10.862;2023-05-15T07:32:19;6.07;;;4.03;;
4867;SDS011;2448;48.086;10.862;2023-05-15T07:34:44;5.00;;;3.70;;
4867;SDS011;2448;48.086;10.862;2023-05-15T07:37:10;4.10;;;3.63;;
4867;SDS011;2448;48.086;10.862;2023-05-15T07:39:35;8.20;;;4.20;;
4867;SDS011;2448;48.086;10.862;2023-05-15T07:42:00;4.37;;;3.50;;
4867;SDS011;2448;48.086;10.862;2023-05-15T07:44:26;7.33;;;4.23;;
4867;SDS011;2448;48.086;10.862;2023-05-15T07:46:53;17.27;;;4.30;;
4867;SDS011;2448;48.086;10.862;2023-05-15T07:49:19;4.63;;;4.03;;
4867;SDS011;2448;48.086;10.862;2023-05-15T07:51:44;4.77;;;3.53;;
4867;SDS011;2448;48.086;10.862;2023-05-15T07:54:09;5.87;;;3.80;;
4867;SDS011;2448;48.086;10.862;2023-05-15T07:56:35;4.27;;;3.60;;
4867;SDS011;2448;48.086;10.862;2023-05-15T07:59:00;5.23;;;3.57;;
4867;SDS011;2448;48.086;10.862;2023-05-15T08:01:25;4.63;;;4.03;;
4867;SDS011;2448;48.086;10.862;2023-05-15T08:03:51;5.80;;;4.10;;
4867;SDS011;2448;48.086;10.862;2023-05-15T08:06:16;4.83;;;3.70;;
4867;SDS011;2448;48.086;10.862;2023-05-15T08:08:41;5.07;;;3.60;;
4867;SDS011;2448;48.086;10.862;2023-05-15T08:11:07;4.43;;;3.67;;
4867;SDS011;2448;48.086;10.862;2023-05-15T08:13:33;5.40;;;3.50;;
4867;SDS011;2448;48.086;10.862;2023-05-15T08:15:58;4.50;;;3.60;;
4867;SDS011;2448;48.086;10.862;2023-05-15T08:18:25;4.83;;;3.27;;
4867;SDS011;2448;48.086;10.862;2023-05-15T08:20:50;3.97;;;3.60;;
4867;SDS011;2448;48.086;10.862;2023-05-15T08:23:16;5.20;;;3.80;;
4867;SDS011;2448;48.086;10.862;2023-05-15T08:25:41;5.70;;;3.43;;
4867;SDS011;2448;48.086;10.862;2023-05-15T08:28:07;4.43;;;4.03;;
4867;SDS011;2448;48.086;10.862;2023-05-15T08:30:32;3.20;;;3.00;;
4867;SDS011;2448;48.086;10.862;2023-05-15T08:32:58;4.93;;;4.10;;
4867;SDS011;2448;48.086;10.862;2023-05-15T08:35:23;11.63;;;4.33;;
4867;SDS011;2448;48.086;10.862;2023-05-15T08:37:48;6.70;;;4.67;;
4867;SDS011;2448;48.086;10.862;2023-05-15T08:40:14;5.30;;;4.60;;
4867;SDS011;2448;48.086;10.862;2023-05-15T08:42:43;8.60;;;4.50;;
4867;SDS011;2448;48.086;10.862;2023-05-15T08:45:12;4.33;;;3.93;;
4867;SDS011;2448;48.086;10.862;2023-05-15T08:47:38;5.90;;;4.63;;
4867;SDS011;2448;48.086;10.862;2023-05-15T08:50:14;4.93;;;4.00;;
4867;SDS011;2448;48.086;10.862;2023-05-15T08:52:43;7.00;;;4.60;;
4867;SDS011;2448;48.086;10.862;2023-05-15T08:55:09;10.33;;;5.00;;
4867;SDS011;2448;48.086;10.862;2023-05-15T08:57:35;4.53;;;4.13;;
4867;SDS011;2448;48.086;10.862;2023-05-15T09:00:01;4.70;;;4.30;;
4867;SDS011;2448;48.086;10.862;2023-05-15T09:02:28;7.43;;;4.47;;
4867;SDS011;2448;48.086;10.862;2023-05-15T09:04:54;7.60;;;4.27;;
4867;SDS011;2448;48.086;10.862;2023-05-15T09:07:19;5.83;;;4.20;;
4867;SDS011;2448;48.086;10.862;2023-05-15T09:09:44;5.10;;;3.80;;
4867;SDS011;2448;48.086;10.862;2023-05-15T09:12:10;5.40;;;4.57;;
4867;SDS011;2448;48.086;10.862;2023-05-15T09:14:38;5.23;;;4.27;;
4867;SDS011;2448;48.086;10.862;2023-05-15T09:17:03;4.23;;;3.67;;
4867;SDS011;2448;48.086;10.862;2023-05-15T09:19:29;3.83;;;3.50;;
4867;SDS011;2448;48.086;10.862;2023-05-15T09:21:54;4.73;;;3.90;;
4867;SDS011;2448;48.086;10.862;2023-05-15T09:24:23;5.50;;;4.03;;
4867;SDS011;2448;48.086;10.862;2023-05-15T09:29:30;4.70;;;4.23;;
4867;SDS011;2448;48.086;10.862;2023-05-15T09:31:56;4.33;;;3.67;;
4867;SDS011;2448;48.086;10.862;2023-05-15T09:34:29;5.90;;;4.50;;
4867;SDS011;2448;48.086;10.862;2023-05-15T09:36:55;6.00;;;3.83;;
4867;SDS011;2448;48.086;10.862;2023-05-15T09:39:23;5.37;;;3.33;;
4867;SDS011;2448;48.086;10.862;2023-05-15T09:41:50;4.20;;;3.77;;
4867;SDS011;2448;48.086;10.862;2023-05-15T09:44:16;6.10;;;3.80;;
4867;SDS011;2448;48.086;10.862;2023-05-15T09:46:42;5.27;;;3.90;;
4867;SDS011;2448;48.086;10.862;2023-05-15T09:49:08;5.50;;;4.10;;
4867;SDS011;2448;48.086;10.862;2023-05-15T09:51:33;4.17;;;3.77;;
4867;SDS011;2448;48.086;10.862;2023-05-15T09:53:58;6.10;;;4.50;;
4867;SDS011;2448;48.086;10.862;2023-05-15T09:56:24;6.63;;;4.30;;
4867;SDS011;2448;48.086;10.862;2023-05-15T09:58:56;5.40;;;4.37;;
4867;SDS011;2448;48.086;10.862;2023-05-15T10:01:22;4.70;;;4.23;;
4867;SDS011;2448;48.086;10.862;2023-05-15T10:04:08;4.20;;;3.80;;
4867;SDS011;2448;48.086;10.862;2023-05-15T10:06:34;6.10;;;3.73;;
4867;SDS011;2448;48.086;10.862;2023-05-15T10:09:00;4.67;;;4.27;;
4867;SDS011;2448;48.086;10.862;2023-05-15T10:11:26;4.93;;;4.53;;
4867;SDS011;2448;48.086;10.862;2023-05-15T10:13:51;7.50;;;3.57;;
4867;SDS011;2448;48.086;10.862;2023-05-15T10:16:16;4.77;;;4.37;;
4867;SDS011;2448;48.086;10.862;2023-05-15T10:18:44;3.80;;;3.43;;
4867;SDS011;2448;48.086;10.862;2023-05-15T10:21:10;3.53;;;3.20;;
4867;SDS011;2448;48.086;10.862;2023-05-15T10:23:36;9.63;;;4.07;;
4867;SDS011;2448;48.086;10.862;2023-05-15T10:26:10;4.10;;;3.70;;
4867;SDS011;2448;48.086;10.862;2023-05-15T10:28:38;4.57;;;3.57;;
4867;SDS011;2448;48.086;10.862;2023-05-15T10:31:04;4.07;;;3.13;;
4867;SDS011;2448;48.086;10.862;2023-05-15T10:33:29;3.43;;;3.20;;
4867;SDS011;2448;48.086;10.862;2023-05-15T10:35:56;3.37;;;3.07;;
4867;SDS011;2448;48.086;10.862;2023-05-15T10:38:22;3.93;;;3.63;;
4867;SDS011;2448;48.086;10.862;2023-05-15T10:40:48;2.67;;;2.50;;
4867;SDS011;2448;48.086;10.862;2023-05-15T10:43:16;4.23;;;3.00;;
4867;SDS011;2448;48.086;10.862;2023-05-15T10:45:43;4.00;;;3.50;;
4867;SDS011;2448;48.086;10.862;2023-05-15T10:48:08;3.00;;;2.80;;
4867;SDS011;2448;48.086;10.862;2023-05-15T10:50:36;3.43;;;3.13;;
4867;SDS011;2448;48.086;10.862;2023-05-15T10:53:02;4.10;;;3.50;;
4867;SDS011;2448;48.086;10.862;2023-05-15T10:55:27;4.13;;;3.77;;
4867;SDS011;2448;48.086;10.862;2023-05-15T10:57:54;3.83;;;3.43;;
4867;SDS011;2448;48.086;10.862;2023-05-15T11:00:27;3.13;;;2.93;;
4867;SDS011;2448;48.086;10.862;2023-05-15T11:02:53;3.57;;;3.20;;
4867;SDS011;2448;48.086;10.862;2023-05-15T11:05:20;3.33;;;2.97;;
4867;SDS011;2448;48.086;10.862;2023-05-15T11:10:46;3.50;;;3.20;;
4867;SDS011;2448;48.086;10.862;2023-05-15T11:13:12;10.40;;;2.73;;
4867;SDS011;2448;48.086;10.862;2023-05-15T11:15:40;2.90;;;2.70;;
4867;SDS011;2448;48.086;10.862;2023-05-15T11:18:05;11.43;;;2.87;;
4867;SDS011;2448;48.086;10.862;2023-05-15T11:20:31;2.87;;;2.40;;
4867;SDS011;2448;48.086;10.862;2023-05-15T11:22:57;2.70;;;1.97;;
4867;SDS011;2448;48.086;10.862;2023-05-15T11:25:28;2.27;;;1.93;;
4867;SDS011;2448;48.086;10.862;2023-05-15T11:27:53;4.33;;;1.83;;
4867;SDS011;2448;48.086;10.862;2023-05-15T11:30:20;2.10;;;2.00;;
4867;SDS011;2448;48.086;10.862;2023-05-15T11:35:25;4.50;;;3.03;;
4867;SDS011;2448;48.086;10.862;2023-05-15T11:37:51;3.20;;;2.90;;
4867;SDS011;2448;48.086;10.862;2023-05-15T11:40:19;2.90;;;2.70;;
4867;SDS011;2448;48.086;10.862;2023-05-15T11:43:01;2.80;;;2.60;;
4867;SDS011;2448;48.086;10.862;2023-05-15T11:45:28;2.53;;;2.43;;
4867;SDS011;2448;48.086;10.862;2023-05-15T11:47:54;3.60;;;2.77;;
4867;SDS011;2448;48.086;10.862;2023-05-15T11:50:19;3.97;;;2.60;;
4867;SDS011;2448;48.086;10.862;2023-05-15T11:52:45;3.33;;;3.07;;
4867;SDS011;2448;48.086;10.862;2023-05-15T11:55:11;3.30;;;2.70;;
4867;SDS011;2448;48.086;10.862;2023-05-15T11:57:36;2.97;;;2.73;;
4867;SDS011;2448;48.086;10.862;2023-05-15T12:00:02;5.47;;;2.63;;
4867;SDS011;2448;48.086;10.862;2023-05-15T12:02:30;6.00;;;2.60;;
4867;SDS011;2448;48.086;10.862;2023-05-15T12:04:55;3.67;;;2.87;;
4867;SDS011;2448;48.086;10.862;2023-05-15T12:07:21;4.17;;;2.57;;
4867;SDS011;2448;48.086;10.862;2023-05-15T12:09:49;2.87;;;2.63;;
4867;SDS011;2448;48.086;10.862;2023-05-15T12:12:16;3.03;;;2.40;;
4867;SDS011;2448;48.086;10.862;2023-05-15T12:14:42;2.20;;;1.83;;
4867;SDS011;2448;48.086;10.862;2023-05-15T12:17:07;2.30;;;2.20;;
4867;SDS011;2448;48.086;10.862;2023-05-15T12:19:33;2.13;;;1.83;;
4867;SDS011;2448;48.086;10.862;2023-05-15T12:21:58;2.60;;;2.43;;
4867;SDS011;2448;48.086;10.862;2023-05-15T12:24:25;2.57;;;2.37;;
4867;SDS011;2448;48.086;10.862;2023-05-15T12:26:50;1.83;;;1.73;;
4867;SDS011;2448;48.086;10.862;2023-05-15T12:29:15;2.20;;;2.00;;
4867;SDS011;2448;48.086;10.862;2023-05-15T12:31:41;3.13;;;2.70;;
4867;SDS011;2448;48.086;10.862;2023-05-15T12:34:07;2.40;;;2.20;;
4867;SDS011;2448;48.086;10.862;2023-05-15T12:36:33;1.30;;;1.30;;
4867;SDS011;2448;48.086;10.862;2023-05-15T12:39:03;3.17;;;2.20;;
4867;SDS011;2448;48.086;10.862;2023-05-15T12:41:29;3.40;;;2.47;;
4867;SDS011;2448;48.086;10.862;2023-05-15T12:43:55;1.80;;;1.70;;
4867;SDS011;2448;48.086;10.862;2023-05-15T12:46:21;5.23;;;2.83;;
4867;SDS011;2448;48.086;10.862;2023-05-15T12:48:46;2.17;;;2.07;;
4867;SDS011;2448;48.086;10.862;2023-05-15T12:51:11;2.10;;;2.00;;
4867;SDS011;2448;48.086;10.862;2023-05-15T12:53:40;1.90;;;1.80;;
4867;SDS011;2448;48.086;10.862;2023-05-15T12:56:07;2.43;;;2.27;;
4867;SDS011;2448;48.086;10.862;2023-05-15T12:58:33;2.60;;;2.40;;
4867;SDS011;2448;48.086;10.862;2023-05-15T13:00:58;2.00;;;1.90;;
4867;SDS011;2448;48.086;10.862;2023-05-15T13:03:23;2.43;;;2.23;;
4867;SDS011;2448;48.086;10.862;2023-05-15T13:05:49;2.13;;;2.00;;
4867;SDS011;2448;48.086;10.862;2023-05-15T13:08:17;2.33;;;2.17;;
4867;SDS011;2448;48.086;10.862;2023-05-15T13:10:42;2.10;;;2.00;;
4867;SDS011;2448;48.086;10.862;2023-05-15T13:13:08;2.20;;;2.10;;
4867;SDS011;2448;48.086;10.862;2023-05-15T13:15:37;4.00;;;2.20;;
4867;SDS011;2448;48.086;10.862;2023-05-15T13:18:11;2.33;;;2.13;;
4867;SDS011;2448;48.086;10.862;2023-05-15T13:23:05;3.20;;;1.97;;
4867;SDS011;2448;48.086;10.862;2023-05-15T13:25:31;2.83;;;2.63;;
4867;SDS011;2448;48.086;10.862;2023-05-15T13:27:58;3.37;;;2.17;;
4867;SDS011;2448;48.086;10.862;2023-05-15T13:30:23;3.60;;;2.00;;
4867;SDS011;2448;48.086;10.862;2023-05-15T13:32:50;3.33;;;2.20;;
4867;SDS011;2448;48.086;10.862;2023-05-15T13:35:15;1.30;;;1.30;;
4867;SDS011;2448;48.086;10.862;2023-05-15T13:37:41;1.20;;;1.20;;
4867;SDS011;2448;48.086;10.862;2023-05-15T13:40:07;1.30;;;1.30;;
4867;SDS011;2448;48.086;10.862;2023-05-15T13:42:37;1.23;;;1.23;;
4867;SDS011;2448;48.086;10.862;2023-05-15T13:45:03;1.37;;;1.10;;
4867;SDS011;2448;48.086;10.862;2023-05-15T13:47:29;1.10;;;1.10;;
4867;SDS011;2448;48.086;10.862;2023-05-15T13:49:54;1.37;;;1.30;;
4867;SDS011;2448;48.086;10.862;2023-05-15T13:52:20;2.90;;;1.90;;
4867;SDS011;2448;48.086;10.862;2023-05-15T13:54:45;19.43;;;2.17;;
4867;SDS011;2448;48.086;10.862;2023-05-15T13:57:11;2.17;;;1.73;;
4867;SDS011;2448;48.086;10.862;2023-05-15T13:59:36;1.70;;;1.60;;
4867;SDS011;2448;48.086;10.862;2023-05-15T14:02:01;4.50;;;1.97;;
4867;SDS011;2448;48.086;10.862;2023-05-15T14:04:27;2.27;;;2.10;;
4867;SDS011;2448;48.086;10.862;2023-05-15T14:06:52;2.20;;;2.10;;
4867;SDS011;2448;48.086;10.862;2023-05-15T14:09:17;2.80;;;2.50;;
4867;SDS011;2448;48.086;10.862;2023-05-15T14:11:43;2.60;;;2.40;;
4867;SDS011;2448;48.086;10.862;2023-05-15T14:14:08;3.03;;;2.40;;
4867;SDS011;2448;48.086;10.862;2023-05-15T14:16:33;2.13;;;2.03;;
4867;SDS011;2448;48.086;10.862;2023-05-15T14:18:59;2.70;;;2.50;;
4867;SDS011;2448;48.086;10.862;2023-05-15T14:21:25;35.83;;;3.20;;
4867;SDS011;2448;48.086;10.862;2023-05-15T14:23:50;2.13;;;2.03;;
4867;SDS011;2448;48.086;10.862;2023-05-15T14:26:15;2.17;;;2.07;;
4867;SDS011;2448;48.086;10.862;2023-05-15T14:28:41;2.70;;;1.90;;
4867;SDS011;2448;48.086;10.862;2023-05-15T14:31:06;1.83;;;1.73;;
4867;SDS011;2448;48.086;10.862;2023-05-15T14:33:32;1.87;;;1.83;;
4867;SDS011;2448;48.086;10.862;2023-05-15T14:35:57;2.00;;;1.90;;
4867;SDS011;2448;48.086;10.862;2023-05-15T14:38:22;1.70;;;1.60;;
4867;SDS011;2448;48.086;10.862;2023-05-15T14:40:48;3.20;;;2.00;;
4867;SDS011;2448;48.086;10.862;2023-05-15T14:43:13;1.80;;;1.70;;
4867;SDS011;2448;48.086;10.862;2023-05-15T14:45:38;1.83;;;1.73;;
4867;SDS011;2448;48.086;10.862;2023-05-15T14:48:04;2.53;;;1.93;;
4867;SDS011;2448;48.086;10.862;2023-05-15T14:50:29;2.50;;;2.00;;
4867;SDS011;2448;48.086;10.862;2023-05-15T14:52:54;1.50;;;1.40;;
4867;SDS011;2448;48.086;10.862;2023-05-15T14:55:20;1.50;;;1.50;;
4867;SDS011;2448;48.086;10.862;2023-05-15T14:57:48;2.50;;;2.20;;
4867;SDS011;2448;48.086;10.862;2023-05-15T15:00:14;8.03;;;2.40;;
4867;SDS011;2448;48.086;10.862;2023-05-15T15:02:40;2.20;;;2.00;;
4867;SDS011;2448;48.086;10.862;2023-05-15T15:05:06;2.63;;;2.43;;
4867;SDS011;2448;48.086;10.862;2023-05-15T15:07:33;3.70;;;3.00;;
4867;SDS011;2448;48.086;10.862;2023-05-15T15:10:17;3.43;;;2.10;;
4867;SDS011;2448;48.086;10.862;2023-05-15T15:12:42;2.07;;;1.97;;
4867;SDS011;2448;48.086;10.862;2023-05-15T15:15:07;2.10;;;2.00;;